Time;durP1;ratioP1;P1;durP2;ratioP2;P2;SDS_P1;SDS_P2;PMS_P1;PMS_P2;Temp;Humidity;BMP_temperature;BMP_pressure;BME280_temperature;BME280_humidity;BME280_pressure;Samples;Min_cycle;Max_cycle;Signal;HPM_P1;HPM_P2
2023/10/13 00:03:18;;;;;;;1999.90;999.90;;;;;;;16.74;100.00;101181.84;10501114;28;20049;-67
2023/10/13 00:08:21;;;;;;;1999.90;999.90;;;;;;;16.58;100.00;101180.38;10502163;28;20048;-67
2023/10/13 00:13:24;;;;;;;1999.90;999.90;;;;;;;16.65;100.00;101180.75;10501890;28;20072;-67
2023/10/13 00:18:32;;;;;;;1999.90;999.90;;;;;;;16.70;100.00;101174.16;10482848;28;20052;-67
2023/10/13 00:23:36;;;;;;;1999.90;999.90;;;;;;;16.64;100.00;101176.41;10500420;28;20105;-67
2023/10/13 00:28:46;;;;;;;1999.90;999.90;;;;;;;16.61;100.00;101166.06;10500614;28;20386;-67
2023/10/13 00:33:49;;;;;;;1999.90;999.90;;;;;;;16.62;100.00;101151.91;10501149;28;20045;-67
2023/10/13 00:38:52;;;;;;;1999.90;999.90;;;;;;;16.68;100.00;101147.00;10499951;28;20140;-67
2023/10/13 00:44:04;;;;;;;1999.90;999.90;;;;;;;16.57;100.00;101156.72;10499841;28;20051;-67
2023/10/13 00:49:09;;;;;;;1999.90;999.90;;;;;;;16.64;100.00;101149.97;10500424;28;20049;-67
2023/10/13 00:54:11;;;;;;;1999.90;999.90;;;;;;;16.62;100.00;101143.97;10499581;28;20580;-67
2023/10/13 00:59:17;;;;;;;1999.90;999.90;;;;;;;16.62;100.00;101133.41;10500186;28;20178;-67
2023/10/13 01:04:20;;;;;;;1999.90;999.90;;;;;;;16.50;100.00;101128.09;10499111;28;20044;-67
2023/10/13 01:09:24;;;;;;;1999.90;999.90;;;;;;;16.44;100.00;101131.22;10499650;28;20049;-67
2023/10/13 01:14:28;;;;;;;1999.90;999.90;;;;;;;16.56;100.00;101125.94;10499435;28;20044;-67
2023/10/13 01:19:42;;;;;;;1999.90;999.90;;;;;;;16.52;100.00;101114.78;10498690;28;20448;-67
2023/10/13 01:24:45;;;;;;;1999.90;999.90;;;;;;;16.56;100.00;101118.00;10497937;28;20051;-67
2023/10/13 01:29:50;;;;;;;1999.90;999.90;;;;;;;16.55;100.00;101100.50;10498098;28;20131;-67
2023/10/13 01:34:57;;;;;;;1999.90;999.90;;;;;;;16.69;100.00;101102.88;10499190;28;20071;-67
2023/10/13 01:40:00;;;;;;;1999.90;999.90;;;;;;;16.60;100.00;101085.94;10498141;28;20485;-67
2023/10/13 01:45:05;;;;;;;1999.90;999.90;;;;;;;16.57;100.00;101074.78;10498517;28;20051;-67
2023/10/13 01:50:30;;;;;;;1999.90;999.90;;;;;;;16.50;100.00;101064.66;10496697;28;20102;-66
2023/10/13 01:55:31;;;;;;;1999.90;999.90;;;;;;;16.54;100.00;101049.41;10497663;28;20481;-67
2023/10/13 02:00:40;;;;;;;1999.90;999.90;;;;;;;16.52;100.00;101059.25;10498365;28;20048;-67
2023/10/13 02:05:47;;;;;;;1999.90;999.90;;;;;;;16.46;100.00;101062.41;10498426;28;20048;-66
2023/10/13 02:10:55;;;;;;;1999.90;999.90;;;;;;;16.50;100.00;101047.97;10496285;28;20390;-66
2023/10/13 02:16:02;;;;;;;1999.90;999.90;;;;;;;16.49;100.00;101046.28;10479601;28;20128;-67
2023/10/13 02:21:04;;;;;;;1999.90;999.90;;;;;;;16.49;100.00;101028.66;10497887;28;20053;-67
2023/10/13 02:26:27;;;;;;;1999.90;999.90;;;;;;;16.52;100.00;101025.78;10497685;28;20127;-67
2023/10/13 02:31:29;;;;;;;1999.90;999.90;;;;;;;16.42;100.00;101011.56;10497046;28;20465;-66
2023/10/13 02:37:09;;;;;;;1999.90;999.90;;;;;;;16.40;100.00;101005.56;10497264;28;20049;-67
2023/10/13 02:42:01;;;;;;;1999.90;999.90;;;;;;;16.48;100.00;100989.13;10496252;28;20045;-66
2023/10/13 02:47:13;;;;;;;1999.90;999.90;;;;;;;16.40;100.00;101007.38;10503655;28;20052;-66
2023/10/13 02:52:16;;;;;;;1999.90;999.90;;;;;;;16.42;100.00;100992.25;10505169;28;20079;-66
2023/10/13 02:57:18;;;;;;;1999.90;999.90;;;;;;;16.46;100.00;100981.31;10504870;28;20072;-66
2023/10/13 03:02:27;;;;;;;1999.90;999.90;;;;;;;16.45;100.00;100976.16;10504582;28;20051;-65
2023/10/13 03:07:31;;;;;;;1999.90;999.90;;;;;;;16.42;100.00;100966.66;10504522;28;20044;-65
2023/10/13 03:12:35;;;;;;;1999.90;999.90;;;;;;;16.35;100.00;100950.44;10486588;28;20055;-65
2023/10/13 03:17:43;;;;;;;1999.90;999.90;;;;;;;16.40;100.00;100933.41;10485714;28;20052;-65
2023/10/13 03:22:45;;;;;;;1999.90;999.90;;;;;;;16.35;100.00;100931.13;10485566;28;20044;-65
2023/10/13 03:32:54;;;;;;;1999.90;999.90;;;;;;;16.36;100.00;100922.25;10503530;28;20079;-65
2023/10/13 03:37:57;;;;;;;1999.90;999.90;;;;;;;16.42;100.00;100923.53;10502587;28;20061;-65
2023/10/13 03:43:04;;;;;;;1999.90;999.90;;;;;;;16.45;100.00;100910.91;10501282;28;20459;-64
2023/10/13 03:53:54;;;;;;;1999.90;999.90;;;;;;;16.42;100.00;100883.91;10397373;22;20509;-67
2023/10/13 03:59:00;;;;;;;1999.90;999.90;;;;;;;16.44;100.00;100874.91;10371394;28;20460;-67
2023/10/13 04:04:04;;;;;;;1999.90;999.90;;;;;;;16.43;100.00;100865.28;10371793;28;20502;-67
2023/10/13 04:09:54;;;;;;;1999.90;999.90;;;;;;;16.47;100.00;100866.69;10372470;28;20125;-67
2023/10/13 04:25:35;;;;;;;1999.90;999.90;;;;;;;16.51;100.00;100811.81;10371139;28;20444;-67
2023/10/13 04:30:58;;;;;;;1999.90;999.90;;;;;;;16.61;100.00;100819.81;10370633;28;20103;-67
2023/10/13 04:41:57;;;;;;;1999.90;999.90;;;;;;;16.63;100.00;100788.81;10371286;28;20050;-68
2023/10/13 05:45:40;;;;;;;1999.90;999.90;;;;;;;17.20;100.00;100734.63;10368723;28;20379;-68
2023/10/13 05:51:32;;;;;;;1999.90;999.90;;;;;;;17.35;100.00;100707.78;10367446;28;20149;-68
2023/10/13 06:28:41;;;;;;;1999.90;999.90;;;;;;;17.35;100.00;100700.72;10375002;28;20133;-67
2023/10/13 06:33:47;;;;;;;1999.90;999.90;;;;;;;17.36;100.00;100696.25;10373764;28;20045;-67
2023/10/13 06:38:56;;;;;;;1999.90;999.90;;;;;;;17.45;100.00;100691.00;10374620;28;20490;-67
2023/10/13 06:44:01;;;;;;;1999.90;999.90;;;;;;;17.51;100.00;100681.66;10374342;28;20483;-67
2023/10/13 06:49:03;;;;;;;1999.90;999.90;;;;;;;17.40;100.00;100685.28;10374332;28;20056;-68
2023/10/13 06:54:11;;;;;;;1999.90;999.90;;;;;;;17.51;100.00;100688.78;10374454;28;20406;-68
2023/10/13 06:59:16;;;;;;;1999.90;999.90;;;;;;;17.39;100.00;100691.53;10372823;28;20155;-68
2023/10/13 07:04:21;;;;;;;1999.90;999.90;;;;;;;17.40;100.00;100679.13;10374267;28;20046;-68
2023/10/13 07:09:39;;;;;;;1999.90;999.90;;;;;;;17.35;100.00;100676.91;10374247;28;20050;-68
2023/10/13 07:14:59;;;;;;;1999.90;999.90;;;;;;;17.31;100.00;100670.19;10372876;28;20052;-68
2023/10/13 07:20:44;;;;;;;1999.90;999.90;;;;;;;17.30;100.00;100657.09;10357083;28;20053;-67
2023/10/13 07:25:32;;;;;;;1999.90;999.90;;;;;;;17.29;100.00;100648.31;10367138;28;20042;-68
2023/10/13 07:30:49;;;;;;;1999.90;999.90;;;;;;;17.35;100.00;100639.00;10371941;28;20085;-71
2023/10/13 07:36:15;;;;;;;1999.90;999.90;;;;;;;17.35;100.00;100634.56;10356902;28;20046;-71
2023/10/13 07:41:21;;;;;;;1999.90;999.90;;;;;;;17.32;100.00;100623.41;10360268;28;20046;-71
2023/10/13 07:46:31;;;;;;;1999.90;999.90;;;;;;;17.35;100.00;100618.69;10344305;28;20094;-71
2023/10/13 07:51:40;;;;;;;1999.90;999.90;;;;;;;17.49;100.00;100614.81;10339614;28;20145;-71
2023/10/13 07:56:43;;;;;;;1999.90;999.90;;;;;;;17.58;100.00;100605.19;10357721;28;20057;-71
2023/10/13 08:01:45;;;;;;;1999.90;999.90;;;;;;;17.56;100.00;100586.78;10339966;28;20046;-72
2023/10/13 08:06:48;;;;;;;1999.90;999.90;;;;;;;17.62;100.00;100583.59;10338194;28;20046;-71
2023/10/13 08:11:54;;;;;;;1999.90;999.90;;;;;;;17.61;100.00;100575.81;10339826;28;20054;-72
2023/10/13 08:17:06;;;;;;;1999.90;999.90;;;;;;;17.73;100.00;100572.03;10342728;28;20050;-71
2023/10/13 08:32:54;;;;;;;1999.90;999.90;;;;;;;18.18;100.00;100560.03;10355638;28;20402;-69
2023/10/13 08:37:59;;;;;;;1999.90;999.90;;;;;;;18.54;100.00;100557.53;10366949;28;20049;-69
2023/10/13 08:43:13;;;;;;;1999.90;999.90;;;;;;;18.96;100.00;100553.59;10370042;28;20050;-68
2023/10/13 08:48:15;;;;;;;1999.90;999.90;;;;;;;19.57;100.00;100507.75;10371035;28;20054;-69
2023/10/13 08:59:05;;;;;;;1999.90;999.90;;;;;;;18.96;100.00;100492.56;10370827;28;20110;-68
2023/10/13 09:03:54;;;;;;;1999.90;999.90;;;;;;;19.29;100.00;100472.50;10369988;28;20108;-68
2023/10/13 09:09:07;;;;;;;1999.90;999.90;;;;;;;19.04;100.00;100463.47;10369303;28;20490;-68
2023/10/13 09:14:32;;;;;;;1999.90;999.90;;;;;;;18.76;100.00;100458.19;10369695;28;20430;-68
2023/10/13 09:19:58;;;;;;;1999.90;999.90;;;;;;;18.81;100.00;100465.69;10369575;28;20407;-68
2023/10/13 09:25:00;;;;;;;1999.90;999.90;;;;;;;18.97;100.00;100442.03;10368173;28;20045;-68
2023/10/13 09:30:18;;;;;;;1999.90;999.90;;;;;;;18.94;100.00;100444.97;10368642;28;20077;-68
2023/10/13 09:35:26;;;;;;;1999.90;999.90;;;;;;;18.90;100.00;100425.06;10368691;28;20092;-68
2023/10/13 09:45:40;;;;;;;1999.90;999.90;;;;;;;18.73;100.00;100424.03;10368642;28;20053;-68
2023/10/13 09:50:48;;;;;;;1999.90;999.90;;;;;;;19.00;100.00;100417.84;10368599;28;20085;-68
2023/10/13 09:56:19;;;;;;;1999.90;999.90;;;;;;;19.08;100.00;100406.47;10367447;28;20050;-68
2023/10/13 10:01:37;;;;;;;1999.90;999.90;;;;;;;19.14;100.00;100400.56;10369181;28;20087;-68
2023/10/13 10:06:45;;;;;;;1999.90;999.90;;;;;;;18.84;100.00;100404.44;10367652;28;20049;-68
2023/10/13 10:12:06;;;;;;;1999.90;999.90;;;;;;;18.74;100.00;100410.63;10368725;28;20077;-68
2023/10/13 10:17:09;;;;;;;1999.90;999.90;;;;;;;19.09;100.00;100389.56;10368586;28;20054;-68
2023/10/13 10:22:20;;;;;;;1999.90;999.90;;;;;;;18.99;100.00;100378.22;10366623;28;20132;-68
2023/10/13 10:27:41;;;;;;;1999.90;999.90;;;;;;;19.16;100.00;100372.03;10367783;28;20050;-68
2023/10/13 10:32:48;;;;;;;1999.90;999.90;;;;;;;18.96;100.00;100366.06;10366404;28;20525;-68
2023/10/13 10:37:52;;;;;;;1999.90;999.90;;;;;;;18.75;100.00;100361.06;10367437;28;20053;-68
2023/10/13 10:42:55;;;;;;;1999.90;999.90;;;;;;;18.92;100.00;100359.41;10366813;28;20069;-68
2023/10/13 10:47:59;;;;;;;1999.90;999.90;;;;;;;18.92;100.00;100333.72;10365982;28;20479;-68
2023/10/13 10:53:08;;;;;;;1999.90;999.90;;;;;;;18.98;100.00;100329.63;10366972;28;20122;-69
2023/10/13 10:58:28;;;;;;;1999.90;999.90;;;;;;;18.98;100.00;100326.13;10366426;28;20054;-68
2023/10/13 11:03:31;;;;;;;1999.90;999.90;;;;;;;19.19;100.00;100312.53;10371574;28;20102;-69
2023/10/13 11:08:37;;;;;;;1999.90;999.90;;;;;;;19.18;100.00;100308.19;10374234;28;20103;-68
2023/10/13 11:13:50;;;;;;;1999.90;999.90;;;;;;;19.15;100.00;100301.41;10373505;28;20484;-68
2023/10/13 11:19:05;;;;;;;1999.90;999.90;;;;;;;19.28;100.00;100304.47;10372878;28;20050;-68
2023/10/13 11:24:11;;;;;;;1999.90;999.90;;;;;;;19.00;100.00;100303.78;10374364;28;20046;-68
2023/10/13 11:29:13;;;;;;;1999.90;999.90;;;;;;;19.43;100.00;100295.91;10373699;28;20099;-68
2023/10/13 11:34:16;;;;;;;1999.90;999.90;;;;;;;19.43;100.00;100312.69;10373646;28;20046;-68
2023/10/13 11:39:24;;;;;;;1999.90;999.90;;;;;;;19.25;100.00;100264.16;10372698;28;20391;-68
2023/10/13 11:44:31;;;;;;;1999.90;999.90;;;;;;;19.52;100.00;100268.44;10371342;28;20450;-68
2023/10/13 11:49:36;;;;;;;1999.90;999.90;;;;;;;19.65;100.00;100266.16;10371690;28;20050;-67
2023/10/13 11:54:41;;;;;;;1999.90;999.90;;;;;;;19.98;100.00;100246.84;10372301;28;20052;-67
2023/10/13 11:59:46;;;;;;;1999.90;999.90;;;;;;;20.19;100.00;100219.81;10373334;28;20046;-68
2023/10/13 12:04:51;;;;;;;1999.90;999.90;;;;;;;20.26;100.00;100212.84;10372486;28;20048;-67
2023/10/13 12:14:57;;;;;;;1999.90;999.90;;;;;;;20.33;100.00;100202.38;10371140;28;20125;-67
2023/10/13 12:20:10;;;;;;;1999.90;999.90;;;;;;;20.40;100.00;100195.41;10372082;28;20074;-67
2023/10/13 12:25:25;;;;;;;1999.90;999.90;;;;;;;20.23;100.00;100195.41;10371859;28;20074;-67
2023/10/13 12:52:03;;;;;;;1999.90;999.90;;;;;;;20.67;100.00;100193.41;10370614;28;20058;-67
2023/10/13 12:57:09;;;;;;;1999.90;999.90;;;;;;;20.50;98.57;100184.59;10369888;28;20042;-67
2023/10/13 13:02:14;;;;;;;1999.90;999.90;;;;;;;20.49;98.74;100182.94;10370093;28;20064;-67
2023/10/13 13:07:17;;;;;;;1999.90;999.90;;;;;;;20.74;94.47;100173.13;10370543;28;20052;-67
2023/10/13 13:12:20;;;;;;;1999.90;999.90;;;;;;;20.48;100.00;100174.13;10370672;28;20057;-73
2023/10/13 13:17:22;;;;;;;1999.90;999.90;;;;;;;20.52;100.00;100178.09;10369164;28;20071;-74
2023/10/13 13:22:25;;;;;;;1999.90;999.90;;;;;;;20.41;100.00;100168.66;10370179;28;20058;-74
2023/10/13 13:27:27;;;;;;;1999.90;999.90;;;;;;;20.46;97.33;100170.81;10368720;28;20405;-74
2023/10/13 13:32:30;;;;;;;1999.90;999.90;;;;;;;20.49;95.61;100169.63;10368678;28;20053;-74
2023/10/13 13:37:34;;;;;;;1999.90;999.90;;;;;;;20.59;93.58;100165.81;10368961;28;20075;-74
2023/10/13 13:42:36;;;;;;;1999.90;999.90;;;;;;;20.52;94.27;100170.13;10368362;28;20054;-71
2023/10/13 13:47:39;;;;;;;1999.90;999.90;;;;;;;20.72;90.41;100149.34;10368167;28;20046;-75
2023/10/13 13:52:45;;;;;;;1999.90;999.90;;;;;;;20.59;91.40;100160.50;10368605;28;20062;-74
2023/10/13 13:57:50;;;;;;;1999.90;999.90;;;;;;;20.68;90.38;100160.47;10368009;28;20107;-74
2023/10/13 14:02:52;;;;;;;1999.90;999.90;;;;;;;20.66;88.80;100166.00;10368290;28;20057;-73
2023/10/13 14:07:55;;;;;;;1999.90;999.90;;;;;;;20.48;90.07;100160.84;10368094;28;20486;-74
2023/10/13 14:13:13;;;;;;;1999.90;999.90;;;;;;;20.51;90.22;100151.69;10368850;28;20050;-72
2023/10/13 14:18:15;;;;;;;1999.90;999.90;;;;;;;20.47;90.41;100153.03;10367960;28;20085;-72
2023/10/13 14:23:22;;;;;;;1999.90;999.90;;;;;;;20.57;87.44;100161.66;10368387;28;20086;-73
2023/10/13 14:28:34;;;;;;;1999.90;999.90;;;;;;;20.76;84.98;100150.69;10368334;28;20057;-73
2023/10/13 14:33:39;;;;;;;1999.90;999.90;;;;;;;20.36;89.68;100152.38;10367054;28;20046;-75
2023/10/13 14:38:44;;;;;;;1999.90;999.90;;;;;;;20.70;85.16;100147.88;10372677;28;20080;-74
2023/10/13 14:43:49;;;;;;;1999.90;999.90;;;;;;;20.67;86.33;100145.53;10374437;28;20479;-74
2023/10/13 14:48:52;;;;;;;1999.90;999.90;;;;;;;20.80;85.03;100148.50;10374602;28;20514;-74
2023/10/13 14:54:03;;;;;;;1999.90;999.90;;;;;;;20.70;85.78;100150.53;10373229;28;20086;-75
2023/10/13 14:59:06;;;;;;;1999.90;999.90;;;;;;;20.64;85.58;100141.38;10374693;28;20054;-75
2023/10/13 15:04:08;;;;;;;1999.90;999.90;;;;;;;20.58;86.04;100144.72;10374362;28;20064;-75
2023/10/13 15:09:11;;;;;;;1999.90;999.90;;;;;;;20.53;86.53;100149.69;10374379;28;20128;-75
2023/10/13 15:14:13;;;;;;;1999.90;999.90;;;;;;;20.29;88.94;100163.81;10374402;28;20042;-75
2023/10/13 15:19:16;;;;;;;1999.90;999.90;;;;;;;20.58;84.91;100152.69;10374061;28;20050;-73
2023/10/13 15:24:21;;;;;;;1999.90;999.90;;;;;;;20.13;90.44;100165.50;10373185;28;20050;-73
2023/10/13 15:29:35;;;;;;;1999.90;999.90;;;;;;;19.98;93.08;100175.13;10372644;28;20136;-74
2023/10/13 15:34:40;;;;;;;1999.90;999.90;;;;;;;19.82;95.29;100174.09;10372932;28;20074;-76
2023/10/13 15:39:43;;;;;;;1999.90;999.90;;;;;;;19.74;98.86;100155.47;10372880;28;20062;-76
2023/10/13 15:44:45;;;;;;;1999.90;999.90;;;;;;;19.35;100.00;100157.84;10373106;28;20042;-75
2023/10/13 15:49:47;;;;;;;1999.90;999.90;;;;;;;19.12;100.00;100153.13;10371040;28;20052;-75
2023/10/13 15:54:50;;;;;;;1999.90;999.90;;;;;;;18.70;100.00;100153.88;10372265;28;20486;-75
2023/10/13 15:59:53;;;;;;;1999.90;999.90;;;;;;;18.68;100.00;100134.66;10372148;28;20050;-75
2023/10/13 16:04:59;;;;;;;1999.90;999.90;;;;;;;18.37;100.00;100128.00;10373541;23;20059;-66
2023/10/13 16:10:10;;;;;;;1999.90;999.90;;;;;;;18.26;100.00;100119.47;10331358;28;20050;-65
2023/10/13 16:15:13;;;;;;;1999.90;999.90;;;;;;;18.20;100.00;100118.25;10331233;28;20552;-66
2023/10/13 16:20:16;;;;;;;1999.90;999.90;;;;;;;18.10;100.00;100101.63;10314428;28;20051;-66
2023/10/13 16:25:21;;;;;;;1999.90;999.90;;;;;;;18.02;100.00;100102.38;10331463;28;20133;-66
2023/10/13 16:30:23;;;;;;;1999.90;999.90;;;;;;;18.08;100.00;100093.81;10331321;28;20054;-66
2023/10/13 16:35:26;;;;;;;1999.90;999.90;;;;;;;17.93;100.00;100087.41;10330039;28;20042;-66
2023/10/13 16:40:29;;;;;;;1999.90;999.90;;;;;;;17.99;100.00;100079.69;10331016;28;20129;-65
2023/10/13 16:45:43;;;;;;;1999.90;999.90;;;;;;;17.94;100.00;100059.97;10330775;28;20042;-66
2023/10/13 16:50:47;;;;;;;1999.90;999.90;;;;;;;17.92;100.00;100065.41;10312914;28;20466;-66
2023/10/13 16:55:49;;;;;;;1999.90;999.90;;;;;;;17.89;100.00;100059.59;10330413;28;20050;-66
2023/10/13 17:00:52;;;;;;;1999.90;999.90;;;;;;;18.08;100.00;100042.66;10329468;28;20134;-66
2023/10/13 17:05:56;;;;;;;1999.90;999.90;;;;;;;18.10;100.00;100033.56;10329366;28;20492;-66
2023/10/13 17:11:13;;;;;;;1999.90;999.90;;;;;;;18.11;100.00;100037.88;10328880;28;20046;-66
2023/10/13 17:16:21;;;;;;;1999.90;999.90;;;;;;;18.28;100.00;100032.69;10328849;28;20081;-66
2023/10/13 17:21:25;;;;;;;1999.90;999.90;;;;;;;18.11;100.00;100045.84;10328616;28;20085;-66
2023/10/13 17:26:28;;;;;;;1999.90;999.90;;;;;;;17.70;100.00;100077.28;10328887;28;20107;-65
2023/10/13 17:31:33;;;;;;;1999.90;999.90;;;;;;;17.64;100.00;100073.41;10328785;28;20487;-65
2023/10/13 17:36:38;;;;;;;1999.90;999.90;;;;;;;17.46;100.00;100088.44;10329293;28;20050;-65
2023/10/13 17:41:40;;;;;;;1999.90;999.90;;;;;;;17.42;100.00;100132.91;10328614;28;20395;-65
2023/10/13 17:46:43;;;;;;;1999.90;999.90;;;;;;;17.21;100.00;100104.03;10327797;28;20046;-64
2023/10/13 17:51:45;;;;;;;1999.90;999.90;;;;;;;17.20;100.00;100109.50;10310959;28;20086;-64
2023/10/13 17:56:47;;;;;;;1999.90;999.90;;;;;;;17.33;100.00;100085.31;10328582;28;20057;-65
2023/10/13 18:01:50;;;;;;;1999.90;999.90;;;;;;;17.13;100.00;100095.19;10327996;28;20559;-65
2023/10/13 18:06:55;;;;;;;1999.90;999.90;;;;;;;17.05;100.00;100107.34;10326372;28;20395;-65
2023/10/13 18:11:59;;;;;;;1999.90;999.90;;;;;;;17.05;100.00;100109.16;10335291;28;20057;-65
2023/10/13 18:17:02;;;;;;;1999.90;999.90;;;;;;;17.17;100.00;100086.81;10341656;28;20050;-65
2023/10/13 18:22:15;;;;;;;1999.90;999.90;;;;;;;17.18;100.00;100080.56;10340351;28;20057;-65
2023/10/13 18:27:18;;;;;;;1999.90;999.90;;;;;;;17.16;100.00;100073.72;10341411;28;20054;-65
2023/10/13 18:32:20;;;;;;;1999.90;999.90;;;;;;;17.37;100.00;100070.81;10340643;28;20469;-65
2023/10/13 18:37:22;;;;;;;1999.90;999.90;;;;;;;17.29;100.00;100055.69;10341153;28;20157;-65
2023/10/13 18:42:29;;;;;;;1999.90;999.90;;;;;;;17.38;100.00;100065.38;10340978;28;20054;-65
2023/10/13 18:47:32;;;;;;;1999.90;999.90;;;;;;;17.27;100.00;100086.75;10340900;28;20078;-65
2023/10/13 18:52:34;;;;;;;1999.90;999.90;;;;;;;17.35;100.00;100094.78;10340770;28;20062;-64
2023/10/13 18:57:43;;;;;;;1999.90;999.90;;;;;;;17.34;100.00;100079.88;10338884;28;20113;-64
2023/10/13 19:02:50;;;;;;;1999.90;999.90;;;;;;;17.15;100.00;100064.16;10340546;28;20061;-64
2023/10/13 19:07:53;;;;;;;1999.90;999.90;;;;;;;17.04;100.00;100066.00;10339858;28;20055;-65
2023/10/13 19:12:59;;;;;;;1999.90;999.90;;;;;;;16.93;100.00;100076.78;10340227;28;20058;-65
2023/10/13 19:18:02;;;;;;;1999.90;999.90;;;;;;;17.04;100.00;100073.94;10340286;28;20050;-65
2023/10/13 19:23:04;;;;;;;1999.90;999.90;;;;;;;16.84;100.00;100053.84;10336370;28;20054;-65
2023/10/13 19:28:09;;;;;;;1999.90;999.90;;;;;;;16.96;100.00;100038.63;10333159;28;20126;-65
2023/10/13 19:33:12;;;;;;;1999.90;999.90;;;;;;;16.86;100.00;100025.47;10333184;28;20051;-65
2023/10/13 19:38:15;;;;;;;1999.90;999.90;;;;;;;16.98;100.00;100028.72;10332966;28;20152;-65
2023/10/13 19:43:17;;;;;;;1999.90;999.90;;;;;;;16.95;100.00;100026.41;10332805;28;20130;-65
2023/10/13 19:48:22;;;;;;;1999.90;999.90;;;;;;;16.92;100.00;100040.75;10331948;28;20076;-66
2023/10/13 19:53:26;;;;;;;1999.90;999.90;;;;;;;16.99;100.00;100019.84;10332610;28;20093;-66
2023/10/13 19:58:28;;;;;;;1999.90;999.90;;;;;;;16.90;100.00;100017.09;10332376;28;20125;-66
2023/10/13 20:03:31;;;;;;;1999.90;999.90;;;;;;;16.83;100.00;100009.88;10331584;28;20487;-65
2023/10/13 20:08:34;;;;;;;1999.90;999.90;;;;;;;16.91;100.00;99996.75;10331447;28;20059;-65
2023/10/13 20:13:37;;;;;;;1999.90;999.90;;;;;;;16.77;100.00;99986.69;10331300;28;20586;-65
2023/10/13 20:18:41;;;;;;;1999.90;999.90;;;;;;;16.70;100.00;99968.75;10331093;28;20482;-65
2023/10/13 20:23:44;;;;;;;1999.90;999.90;;;;;;;16.71;100.00;99953.75;10330994;28;20099;-65
2023/10/13 20:28:46;;;;;;;1999.90;999.90;;;;;;;16.75;100.00;99960.41;10313514;28;20133;-65
2023/10/13 20:33:49;;;;;;;1999.90;999.90;;;;;;;16.65;100.00;99949.88;10329372;28;20533;-65
2023/10/13 20:38:51;;;;;;;1999.90;999.90;;;;;;;16.68;100.00;99946.13;10331070;28;20081;-65
2023/10/13 20:43:54;;;;;;;1999.90;999.90;;;;;;;16.68;100.00;99938.19;10330946;28;20050;-65
2023/10/13 20:48:57;;;;;;;1999.90;999.90;;;;;;;16.50;100.00;99952.16;10330678;28;20050;-65
2023/10/13 20:53:59;;;;;;;1999.90;999.90;;;;;;;16.52;100.00;99937.03;10330611;28;20054;-66
2023/10/13 20:59:02;;;;;;;1999.90;999.90;;;;;;;16.61;100.00;99940.59;10330455;28;20057;-66
2023/10/13 21:04:04;;;;;;;1999.90;999.90;;;;;;;16.69;100.00;99956.53;10330111;28;20107;-66
2023/10/13 21:09:12;;;;;;;1999.90;999.90;;;;;;;16.71;100.00;99944.00;10329467;28;20058;-66
2023/10/13 21:14:14;;;;;;;1999.90;999.90;;;;;;;16.61;100.00;99943.22;10312282;28;20521;-66
2023/10/13 21:19:17;;;;;;;1999.90;999.90;;;;;;;16.69;100.00;99951.25;10328059;28;20084;-66
2023/10/13 21:24:19;;;;;;;1999.90;999.90;;;;;;;16.92;100.00;99931.53;10328924;28;20510;-66
2023/10/13 21:29:22;;;;;;;1999.90;999.90;;;;;;;16.87;100.00;99916.09;10312213;28;20050;-65
2023/10/13 21:34:24;;;;;;;1999.90;999.90;;;;;;;16.77;100.00;99910.03;10328690;28;20498;-66
2023/10/13 21:39:27;;;;;;;1999.90;999.90;;;;;;;16.78;100.00;99923.09;10329187;28;20072;-65
2023/10/13 21:44:55;;;;;;;1999.90;999.90;;;;;;;16.92;100.00;99984.41;10314201;28;20062;-65
2023/10/13 21:49:58;;;;;;;1999.90;999.90;;;;;;;16.93;100.00;99973.69;10328388;28;20491;-65
2023/10/13 21:55:00;;;;;;;1999.90;999.90;;;;;;;19.01;100.00;99963.22;10328849;28;20132;-65
2023/10/13 22:00:20;;;;;;;1999.90;999.90;;;;;;;26.11;75.59;99859.28;10328687;28;20057;-65
2023/10/13 22:05:23;;;;;;;1999.90;999.90;;;;;;;26.76;68.57;99856.44;10328219;28;20054;-65
2023/10/13 22:10:26;;;;;;;1999.90;999.90;;;;;;;25.86;67.48;99861.81;10327216;28;20054;-65
2023/10/13 22:15:28;;;;;;;1999.90;999.90;;;;;;;27.96;61.95;99830.38;10328260;28;20058;-65
2023/10/13 22:20:33;;;;;;;1999.90;999.90;;;;;;;26.72;63.78;99846.38;10326352;28;20465;-65
2023/10/13 22:25:36;;;;;;;1999.90;999.90;;;;;;;27.56;62.78;99820.84;10328037;28;20089;-65
2023/10/13 22:30:38;;;;;;;1999.90;999.90;;;;;;;26.84;64.85;99847.31;10310010;28;20422;-65
2023/10/13 22:35:41;;;;;;;1999.90;999.90;;;;;;;25.95;65.80;99814.97;10327135;28;20096;-65
2023/10/13 22:40:43;;;;;;;1999.90;999.90;;;;;;;24.25;69.97;99821.59;10327607;28;20125;-64
2023/10/13 22:45:46;;;;;;;1999.90;999.90;;;;;;;24.93;68.83;99844.81;10326064;28;20062;-65
2023/10/13 22:50:49;;;;;;;1999.90;999.90;;;;;;;25.11;68.89;99844.16;10325763;28;20498;-65
2023/10/13 22:55:51;;;;;;;1999.90;999.90;;;;;;;25.49;68.12;99824.78;10326297;28;20057;-64
2023/10/13 23:06:12;;;;;;;1999.90;999.90;;;;;;;25.63;65.92;99840.84;10333637;28;20054;-65
2023/10/13 23:11:15;;;;;;;1999.90;999.90;;;;;;;24.00;72.58;99909.53;10332435;28;20054;-65
2023/10/13 23:16:26;;;;;;;1999.90;999.90;;;;;;;23.76;69.92;99928.69;10332500;28;20050;-66
2023/10/13 23:21:29;;;;;;;1999.90;999.90;;;;;;;24.04;66.03;99916.13;10332361;28;20086;-65
2023/10/13 23:26:31;;;;;;;1999.90;999.90;;;;;;;23.79;66.72;99912.25;10333267;28;20051;-65
2023/10/13 23:31:35;;;;;;;1999.90;999.90;;;;;;;23.61;66.94;99902.06;10332611;28;20452;-65
2023/10/13 23:36:38;;;;;;;1999.90;999.90;;;;;;;22.21;69.18;99925.47;10333097;28;20077;-65
2023/10/13 23:41:41;;;;;;;1999.90;999.90;;;;;;;22.65;67.53;99932.59;10332424;28;20050;-65
2023/10/13 23:46:44;;;;;;;1999.90;999.90;;;;;;;22.60;67.60;99929.66;10314931;28;20407;-65
2023/10/13 23:51:53;;;;;;;1999.90;999.90;;;;;;;23.32;67.41;99935.97;10332597;28;20107;-65
2023/10/13 23:56:56;;;;;;;1999.90;999.90;;;;;;;24.11;64.23;99958.97;10332475;28;20061;-65
